Terminal Aerodrome Forecast
Issued by NWS Lake Charles, LA

Home | Current Version | Previous Version | Text Only | Print | Product List | Glossary On
Versions: 1 2 3 4 5 6 7 8 9 10 11 12
175
FTUS44 KLCH 201725
TAFARA
TAF
KARA 201725Z 2018/2118 15010KT P6SM VCSH SCT035 BKN050
      TEMPO 2020/2024 OVC025
     FM210000 15008KT P6SM OVC025
     FM210600 15006KT 6SM BR OVC015
      TEMPO 2110/2114 3SM BR OVC007
     FM211500 15011G19KT P6SM OVC015=

USA.gov is the U.S. government's official web portal to all federal, state and local government web resources and services.